Time;durP1;ratioP1;P1;durP2;ratioP2;P2;SDS_P1;SDS_P2;PMS_P1;PMS_P2;Temp;Humidity;BMP_temperature;BMP_pressure;BME280_temperature;BME280_humidity;BME280_pressure;Samples;Min_cycle;Max_cycle;Signal;HPM_P1;HPM_P2
2023/07/20 00:00:25;;;;;;;13.15;6.00;;;;;;;16.33;97.28;101297.34;5018188;28;20070;-75
2023/07/20 00:02:51;;;;;;;9.32;5.25;;;;;;;16.33;97.43;101307.97;5013815;28;20021;-76
2023/07/20 00:05:21;;;;;;;10.30;5.88;;;;;;;16.22;97.97;101304.47;5031982;28;20401;-76
2023/07/20 00:07:47;;;;;;;9.60;5.68;;;;;;;16.27;97.45;101307.56;5031417;28;20120;-76
2023/07/20 00:10:12;;;;;;;10.13;6.15;;;;;;;16.29;97.42;101307.41;5012977;28;20724;-76
2023/07/20 00:12:37;;;;;;;15.55;6.47;;;;;;;16.19;98.21;101304.75;5014189;28;20713;-76
2023/07/20 00:15:03;;;;;;;11.77;6.05;;;;;;;16.15;98.34;101298.06;5032865;28;20025;-76
2023/07/20 00:17:29;;;;;;;11.57;5.93;;;;;;;16.19;98.08;101309.22;5030283;28;20025;-75
2023/07/20 00:19:54;;;;;;;10.90;6.20;;;;;;;16.10;98.55;101308.25;5030959;28;20065;-75
2023/07/20 00:22:19;;;;;;;13.60;6.20;;;;;;;16.13;98.21;101312.44;5031393;28;20068;-75
2023/07/20 00:24:45;;;;;;;10.10;6.07;;;;;;;16.12;98.69;101306.28;5031412;28;20493;-75
2023/07/20 00:27:10;;;;;;;10.82;6.30;;;;;;;16.12;99.11;101314.25;5029730;28;20093;-76
2023/07/20 00:29:35;;;;;;;11.15;6.07;;;;;;;16.09;99.65;101313.69;5032819;28;20025;-76
2023/07/20 00:32:01;;;;;;;9.80;5.88;;;;;;;16.09;100.00;101319.84;5031468;28;20029;-75
2023/07/20 00:34:26;;;;;;;10.63;6.55;;;;;;;16.09;99.94;101311.03;5031912;28;20048;-76
2023/07/20 00:36:52;;;;;;;11.60;6.72;;;;;;;16.08;100.00;101314.69;5030471;28;20153;-75
2023/07/20 00:39:17;;;;;;;13.88;7.07;;;;;;;16.02;100.00;101308.09;5031762;28;20029;-75
2023/07/20 00:41:42;;;;;;;11.45;6.95;;;;;;;15.95;100.00;101305.13;5013532;28;20029;-75
2023/07/20 00:44:08;;;;;;;10.95;7.07;;;;;;;15.90;100.00;101309.19;5031632;28;20026;-75
2023/07/20 00:46:33;;;;;;;12.93;7.20;;;;;;;15.85;100.00;101308.75;5022250;28;20029;-75
2023/07/20 00:48:59;;;;;;;15.32;7.15;;;;;;;15.84;100.00;101309.72;5032391;28;20104;-76
2023/07/20 00:51:26;;;;;;;12.25;6.85;;;;;;;15.75;100.00;101315.84;5031774;28;20013;-76
2023/07/20 00:53:52;;;;;;;14.30;7.38;;;;;;;15.75;100.00;101311.38;5030677;28;20033;-75
2023/07/20 00:56:17;;;;;;;12.48;7.45;;;;;;;15.74;100.00;101306.22;5014120;28;20401;-75
2023/07/20 00:58:43;;;;;;;14.00;7.32;;;;;;;15.70;100.00;101310.13;5030684;28;20124;-75
2023/07/20 01:01:08;;;;;;;13.68;6.97;;;;;;;15.64;100.00;101306.19;5028581;28;20042;-75
2023/07/20 01:03:34;;;;;;;13.75;7.70;;;;;;;15.63;100.00;101313.31;5024784;28;20071;-75
2023/07/20 01:06:02;;;;;;;10.45;6.43;;;;;;;15.63;100.00;101313.31;5031266;28;20029;-75
2023/07/20 01:08:42;;;;;;;11.13;6.88;;;;;;;15.66;100.00;101313.03;5030987;28;20053;-75
2023/07/20 01:11:18;;;;;;;9.98;7.45;;;;;;;15.60;100.00;101313.56;5031476;28;20060;-75
2023/07/20 01:13:44;;;;;;;12.00;7.53;;;;;;;15.57;100.00;101311.13;5031455;28;20025;-76
2023/07/20 01:16:10;;;;;;;11.93;7.28;;;;;;;15.59;100.00;101319.84;5014113;28;20393;-76
2023/07/20 01:18:35;;;;;;;10.18;6.78;;;;;;;15.60;100.00;101318.84;5011997;28;20022;-76
2023/07/20 01:21:18;;;;;;;13.00;6.97;;;;;;;15.56;100.00;101319.22;5009083;28;20903;-76
2023/07/20 01:24:18;;;;;;;11.27;7.45;;;;;;;15.59;100.00;101319.84;5031060;28;20381;-76
2023/07/20 01:27:17;;;;;;;15.15;7.75;;;;;;;15.53;100.00;101323.00;5025312;28;20156;-76
2023/07/20 01:29:51;;;;;;;14.95;7.40;;;;;;;15.47;100.00;101323.53;5031072;28;20359;-75
2023/07/20 01:32:18;;;;;;;12.20;7.80;;;;;;;15.43;100.00;101329.25;5029702;28;20521;-75
2023/07/20 01:34:45;;;;;;;11.38;7.13;;;;;;;15.48;100.00;101327.03;5013005;28;20419;-76
2023/07/20 01:37:12;;;;;;;14.90;8.18;;;;;;;15.48;100.00;101325.22;5029462;28;20497;-75
2023/07/20 01:39:38;;;;;;;13.30;7.85;;;;;;;15.46;100.00;101324.50;5030100;28;20112;-75
2023/07/20 01:42:04;;;;;;;12.45;8.15;;;;;;;15.49;100.00;101329.53;5030033;28;20029;-75
2023/07/20 01:44:30;;;;;;;12.48;7.80;;;;;;;15.54;100.00;101327.31;5029981;28;20079;-75
2023/07/20 01:46:55;;;;;;;16.80;8.27;;;;;;;15.54;100.00;101329.97;5013338;28;20032;-75
2023/07/20 01:49:20;;;;;;;14.73;7.45;;;;;;;15.58;100.00;101323.47;5030820;28;20470;-75
2023/07/20 01:51:46;;;;;;;14.63;8.07;;;;;;;15.58;100.00;101325.28;5027907;28;20120;-75
2023/07/20 01:54:11;;;;;;;13.32;8.13;;;;;;;15.55;100.00;101329.00;5029530;28;20025;-76
2023/07/20 01:56:37;;;;;;;14.90;8.15;;;;;;;15.56;100.00;101330.69;5003816;28;20116;-76
2023/07/20 01:59:03;;;;;;;16.13;8.57;;;;;;;15.62;100.00;101332.84;5010813;28;20137;-76
2023/07/20 02:01:28;;;;;;;12.13;8.13;;;;;;;15.66;100.00;101338.72;5019534;28;20500;-76
2023/07/20 02:03:54;;;;;;;11.18;7.50;;;;;;;15.70;100.00;101331.34;5011809;28;20606;-76
2023/07/20 02:06:19;;;;;;;14.30;8.38;;;;;;;15.71;100.00;101335.69;5030862;28;20049;-76
2023/07/20 02:08:44;;;;;;;12.75;9.30;;;;;;;15.73;100.00;101339.03;5030551;28;20420;-76
2023/07/20 02:11:10;;;;;;;13.55;8.68;;;;;;;15.77;100.00;101338.63;5028735;28;20101;-77
2023/07/20 02:13:36;;;;;;;14.73;9.60;;;;;;;15.77;100.00;101338.63;5006803;28;20017;-76
2023/07/20 02:16:01;;;;;;;15.77;10.15;;;;;;;15.79;100.00;101346.44;4998367;28;20325;-77
2023/07/20 02:18:26;;;;;;;17.30;9.93;;;;;;;15.79;100.00;101346.44;5003873;28;20306;-76
2023/07/20 02:20:56;;;;;;;16.83;9.93;;;;;;;15.79;100.00;101344.63;5030024;28;20079;-75
2023/07/20 02:23:21;;;;;;;15.35;10.40;;;;;;;15.85;100.00;101353.88;5012602;28;20029;-76
2023/07/20 02:25:47;;;;;;;16.38;10.07;;;;;;;15.84;100.00;101344.22;5029127;28;20044;-75
2023/07/20 02:28:15;;;;;;;15.80;9.85;;;;;;;15.82;100.00;101347.00;5023798;28;20041;-76
2023/07/20 02:30:43;;;;;;;12.65;10.45;;;;;;;15.86;100.00;101352.88;5015504;28;20393;-75
2023/07/20 02:33:09;;;;;;;17.88;10.55;;;;;;;15.82;100.00;101348.81;5030666;28;20053;-75
2023/07/20 02:35:34;;;;;;;16.50;11.30;;;;;;;15.87;100.00;101354.56;5030230;28;20115;-75
2023/07/20 02:38:00;;;;;;;14.60;11.05;;;;;;;15.87;100.00;101355.41;5028570;28;20577;-75
2023/07/20 02:40:25;;;;;;;13.70;11.10;;;;;;;15.86;100.00;101358.19;5029742;28;20073;-75
2023/07/20 02:42:50;;;;;;;17.92;11.63;;;;;;;15.87;100.00;101357.22;5012070;28;20537;-76
2023/07/20 02:45:16;;;;;;;14.63;12.52;;;;;;;15.86;100.00;101358.19;5008959;28;20029;-75
2023/07/20 02:47:44;;;;;;;14.63;12.40;;;;;;;15.87;100.00;101360.72;5028286;28;20043;-75
2023/07/20 02:50:10;;;;;;;19.10;13.60;;;;;;;15.88;100.00;101361.56;5011781;28;20397;-75
2023/07/20 02:52:35;;;;;;;16.70;13.63;;;;;;;15.86;100.00;101363.50;5029342;28;20029;-75
2023/07/20 02:55:00;;;;;;;18.48;13.90;;;;;;;15.88;100.00;101361.56;5030199;28;20555;-75
2023/07/20 02:57:27;;;;;;;16.08;14.40;;;;;;;15.90;100.00;101370.22;5021508;28;20087;-75
2023/07/20 02:59:52;;;;;;;21.23;15.05;;;;;;;15.84;100.00;101374.25;5011720;28;20029;-75
2023/07/20 03:02:17;;;;;;;18.17;14.77;;;;;;;15.88;100.00;101377.47;5013094;28;20035;-75
2023/07/20 03:04:43;;;;;;;18.30;14.85;;;;;;;15.87;100.00;101379.28;5012327;28;20250;-76
2023/07/20 03:07:08;;;;;;;17.60;15.00;;;;;;;15.84;100.00;101376.91;5029457;28;20071;-75
2023/07/20 03:09:34;;;;;;;20.95;15.63;;;;;;;15.81;100.00;101373.69;5030134;28;20065;-74
2023/07/20 03:11:59;;;;;;;18.50;16.02;;;;;;;15.80;100.00;101383.47;5011409;28;20148;-75
2023/07/20 03:14:25;;;;;;;19.13;16.10;;;;;;;15.78;100.00;101384.56;5029385;28;20390;-75
2023/07/20 03:16:50;;;;;;;20.25;15.85;;;;;;;15.77;100.00;101390.84;5028591;28;20082;-75
2023/07/20 03:19:15;;;;;;;18.92;15.93;;;;;;;15.80;100.00;101390.59;5018446;28;20025;-75
2023/07/20 03:21:41;;;;;;;23.58;17.25;;;;;;;15.72;100.00;101388.59;5021014;28;20093;-75
2023/07/20 03:24:09;;;;;;;17.33;15.52;;;;;;;15.71;100.00;101388.75;4998926;28;20567;-75
2023/07/20 03:26:36;;;;;;;17.83;14.98;;;;;;;15.74;100.00;101389.31;4999701;28;20033;-76
2023/07/20 03:29:01;;;;;;;17.48;15.43;;;;;;;15.70;100.00;101395.00;5028760;28;20240;-76
2023/07/20 03:31:27;;;;;;;17.60;15.60;;;;;;;15.74;100.00;101385.81;5032236;28;20355;-76
2023/07/20 03:33:52;;;;;;;18.60;15.70;;;;;;;15.71;100.00;101391.38;5022087;28;20482;-76
2023/07/20 03:36:18;;;;;;;17.48;15.63;;;;;;;15.70;100.00;101392.34;5013755;28;20030;-75
2023/07/20 03:38:43;;;;;;;17.80;15.90;;;;;;;15.62;100.00;101398.34;5013566;28;20022;-76
2023/07/20 03:41:11;;;;;;;17.95;15.45;;;;;;;15.64;100.00;101396.41;5013312;28;20041;-76
2023/07/20 03:43:37;;;;;;;17.15;15.35;;;;;;;15.58;100.00;101396.91;5024634;28;20056;-76
2023/07/20 03:46:06;;;;;;;16.65;15.05;;;;;;;15.56;100.00;101398.81;5031324;28;20441;-75
2023/07/20 03:48:32;;;;;;;17.33;15.02;;;;;;;15.54;100.00;101409.56;5032077;28;20052;-75
2023/07/20 03:50:58;;;;;;;16.10;14.32;;;;;;;15.60;100.00;101402.91;5020186;28;20465;-75
2023/07/20 03:53:26;;;;;;;16.00;13.95;;;;;;;15.57;100.00;101406.63;4996098;28;20034;-75
2023/07/20 03:55:55;;;;;;;17.33;13.48;;;;;;;15.56;100.00;101404.94;5020025;28;20048;-75
2023/07/20 03:58:21;;;;;;;16.58;13.73;;;;;;;15.56;100.00;101399.66;5033608;28;20429;-76
2023/07/20 04:00:48;;;;;;;14.93;13.40;;;;;;;15.53;100.00;101410.53;5013711;28;20092;-75
2023/07/20 04:03:14;;;;;;;14.93;13.38;;;;;;;15.48;100.00;101407.44;5014273;28;20044;-75
2023/07/20 04:05:39;;;;;;;12.95;11.85;;;;;;;15.57;100.00;101414.59;5031652;28;20051;-76
2023/07/20 04:08:05;;;;;;;13.82;12.10;;;;;;;15.49;100.00;101410.91;4996154;28;20041;-76
2023/07/20 04:10:30;;;;;;;13.13;11.82;;;;;;;15.47;100.00;101412.88;5027931;28;20029;-75
2023/07/20 04:12:56;;;;;;;13.20;11.85;;;;;;;15.43;100.00;101414.09;5031970;28;20037;-75
2023/07/20 04:15:22;;;;;;;12.35;11.13;;;;;;;15.46;100.00;101417.31;5032049;28;20041;-76
2023/07/20 04:17:47;;;;;;;12.73;11.48;;;;;;;15.43;100.00;101422.91;5031781;28;20526;-75
2023/07/20 04:20:13;;;;;;;12.45;11.23;;;;;;;15.48;100.00;101418.03;5014131;28;20129;-76
2023/07/20 04:22:38;;;;;;;11.85;10.57;;;;;;;15.53;100.00;101412.34;5007761;28;20018;-76
2023/07/20 04:25:04;;;;;;;12.13;10.93;;;;;;;15.49;100.00;101411.75;5014503;28;20045;-76
2023/07/20 04:27:30;;;;;;;13.27;11.27;;;;;;;15.53;100.00;101413.19;5029989;28;20396;-76
2023/07/20 04:29:56;;;;;;;11.48;10.27;;;;;;;15.65;100.00;101414.81;5031555;28;20013;-75
2023/07/20 04:32:21;;;;;;;10.35;9.25;;;;;;;16.13;100.00;101413.31;5032307;28;20443;-75
2023/07/20 04:34:46;;;;;;;10.38;9.38;;;;;;;16.67;100.00;101415.53;5032037;28;20037;-75
2023/07/20 04:37:12;;;;;;;10.95;9.95;;;;;;;16.81;98.74;101423.13;5031384;28;20053;-75
2023/07/20 04:39:37;;;;;;;10.50;9.60;;;;;;;17.12;96.73;101413.16;5028353;28;20026;-75
2023/07/20 04:42:03;;;;;;;10.65;9.65;;;;;;;17.18;95.35;101411.75;5019043;28;20404;-75
2023/07/20 04:44:28;;;;;;;11.60;10.55;;;;;;;16.76;96.23;101417.34;5025272;28;20040;-75
2023/07/20 04:46:56;;;;;;;12.38;11.18;;;;;;;16.71;96.66;101418.75;5029159;28;20029;-75
2023/07/20 04:49:22;;;;;;;12.30;11.02;;;;;;;16.56;97.30;101426.28;5013658;28;20397;-75
2023/07/20 04:51:47;;;;;;;12.88;11.68;;;;;;;16.29;99.06;101430.41;5031094;28;20026;-75
2023/07/20 04:54:13;;;;;;;13.75;11.30;;;;;;;16.30;98.83;101426.78;5032160;28;20123;-75
2023/07/20 04:56:38;;;;;;;16.90;12.63;;;;;;;16.13;99.62;101419.47;5022720;28;20437;-76
2023/07/20 04:59:04;;;;;;;16.73;13.57;;;;;;;16.04;100.00;101414.97;5012484;28;20026;-76
2023/07/20 05:01:29;;;;;;;14.90;13.48;;;;;;;15.98;100.00;101420.81;5029877;28;20076;-76
2023/07/20 05:03:54;;;;;;;16.10;14.50;;;;;;;15.95;100.00;101407.81;5013578;28;20497;-76
2023/07/20 05:06:20;;;;;;;15.50;13.77;;;;;;;15.92;100.00;101405.41;5030704;28;20037;-76
2023/07/20 05:08:45;;;;;;;17.05;15.15;;;;;;;15.83;100.00;101409.72;5031330;28;20048;-76
2023/07/20 05:11:11;;;;;;;17.20;15.52;;;;;;;15.82;100.00;101407.22;5013798;28;20035;-76
2023/07/20 05:13:37;;;;;;;15.80;14.20;;;;;;;15.74;100.00;101409.69;5021205;28;20025;-77
2023/07/20 05:16:02;;;;;;;15.68;14.05;;;;;;;15.74;100.00;101412.34;5011841;28;20390;-76
2023/07/20 05:18:28;;;;;;;15.23;13.77;;;;;;;15.75;100.00;101421.97;5021763;28;20026;-76
2023/07/20 05:20:56;;;;;;;15.70;14.02;;;;;;;15.75;100.00;101421.97;5011070;28;20037;-76
2023/07/20 05:23:22;;;;;;;16.52;14.65;;;;;;;15.72;100.00;101425.75;4993943;28;20026;-76
2023/07/20 05:25:53;;;;;;;17.67;14.68;;;;;;;15.77;100.00;101428.84;5011830;28;20065;-76
2023/07/20 05:28:19;;;;;;;16.30;14.70;;;;;;;15.73;100.00;101424.78;5024951;28;20493;-76
2023/07/20 05:30:44;;;;;;;15.68;14.05;;;;;;;15.77;100.00;101428.84;5029195;28;20115;-76
2023/07/20 05:33:09;;;;;;;15.98;14.38;;;;;;;15.80;100.00;101425.91;5022653;28;20056;-77
2023/07/20 05:35:36;;;;;;;16.23;14.57;;;;;;;15.79;100.00;101431.34;5012960;28;20489;-76
2023/07/20 05:38:02;;;;;;;18.27;13.73;;;;;;;15.81;100.00;101434.72;5030123;28;20047;-76
2023/07/20 05:40:27;;;;;;;18.35;12.68;;;;;;;15.81;100.00;101429.41;5029893;28;20037;-75
2023/07/20 05:42:53;;;;;;;13.90;12.50;;;;;;;15.79;100.00;101437.50;5012001;28;20032;-76
2023/07/20 05:45:20;;;;;;;13.10;11.80;;;;;;;15.87;100.00;101434.19;5011996;28;20029;-76
2023/07/20 05:47:46;;;;;;;12.95;11.65;;;;;;;15.86;100.00;101437.81;5012615;28;20498;-76
2023/07/20 05:50:11;;;;;;;12.38;11.07;;;;;;;15.89;100.00;101434.88;5004615;28;20402;-75
2023/07/20 05:52:38;;;;;;;10.75;9.65;;;;;;;15.88;100.00;101443.81;5029543;28;20030;-75
2023/07/20 05:55:04;;;;;;;13.15;9.07;;;;;;;15.86;100.00;101432.50;5009794;28;20029;-76
2023/07/20 05:57:30;;;;;;;10.10;9.10;;;;;;;15.93;100.00;101439.78;5028792;28;20075;-77
2023/07/20 05:59:55;;;;;;;10.73;9.15;;;;;;;15.94;100.00;101448.59;5030825;28;20489;-77
2023/07/20 06:02:21;;;;;;;9.63;8.23;;;;;;;16.03;100.00;101454.94;5011667;28;20041;-77
2023/07/20 06:04:46;;;;;;;8.98;8.07;;;;;;;16.08;100.00;101450.91;5013454;28;20025;-77
2023/07/20 06:07:12;;;;;;;8.80;8.00;;;;;;;16.14;100.00;101453.03;5007874;28;20057;-77
2023/07/20 06:09:37;;;;;;;9.07;8.18;;;;;;;16.19;100.00;101444.66;5010957;28;20509;-77
2023/07/20 06:12:03;;;;;;;8.40;7.60;;;;;;;16.19;100.00;101444.66;4993539;28;20021;-77
2023/07/20 06:14:28;;;;;;;7.68;6.97;;;;;;;16.24;100.00;101443.25;5011215;28;20362;-77
2023/07/20 06:16:54;;;;;;;8.75;7.80;;;;;;;16.25;98.84;101452.91;5027058;28;20436;-77
2023/07/20 06:19:19;;;;;;;6.75;6.05;;;;;;;16.32;98.54;101449.72;5029710;28;20108;-77
2023/07/20 06:21:44;;;;;;;8.32;6.22;;;;;;;16.28;98.39;101451.78;5029513;28;20033;-76
2023/07/20 06:24:10;;;;;;;7.07;6.38;;;;;;;16.29;97.52;101456.97;5008798;28;20033;-76
2023/07/20 06:26:39;;;;;;;7.68;6.30;;;;;;;16.30;97.23;101460.47;5011182;28;20021;-75
2023/07/20 06:29:08;;;;;;;9.63;6.75;;;;;;;16.29;97.27;101472.91;5023340;28;20509;-75
2023/07/20 06:31:35;;;;;;;7.45;6.40;;;;;;;16.28;96.92;101465.91;5028765;28;20029;-77
2023/07/20 06:34:01;;;;;;;7.47;6.75;;;;;;;16.28;97.10;101460.59;5012873;28;20542;-76
2023/07/20 06:36:26;;;;;;;8.00;7.20;;;;;;;16.37;96.77;101458.09;5029792;28;20057;-77
2023/07/20 06:38:52;;;;;;;13.38;7.05;;;;;;;16.56;96.95;101452.84;5029954;28;20027;-77
2023/07/20 06:41:18;;;;;;;8.77;6.68;;;;;;;16.63;96.13;101450.47;5027227;28;20544;-76
2023/07/20 06:43:44;;;;;;;9.02;6.22;;;;;;;16.71;94.18;101451.50;5028987;28;20473;-76
2023/07/20 06:46:09;;;;;;;6.72;6.13;;;;;;;16.84;93.75;101452.09;5027289;28;20032;-76
2023/07/20 06:48:34;;;;;;;7.75;7.00;;;;;;;16.89;92.63;101457.81;5018013;28;20064;-76
2023/07/20 06:51:00;;;;;;;7.80;6.30;;;;;;;17.00;92.33;101450.66;5026797;28;20393;-76
2023/07/20 06:53:25;;;;;;;8.63;7.72;;;;;;;16.86;90.28;101447.47;5012148;28;20029;-76
2023/07/20 06:55:51;;;;;;;9.30;8.35;;;;;;;16.85;90.98;101452.91;5030156;28;20478;-76
2023/07/20 06:58:17;;;;;;;10.18;9.27;;;;;;;16.89;91.51;101457.81;5026409;28;20096;-76
2023/07/20 07:00:43;;;;;;;9.50;8.35;;;;;;;16.80;91.13;101465.75;5013745;28;20040;-76
2023/07/20 07:03:08;;;;;;;9.55;8.50;;;;;;;16.91;91.82;101465.66;5010392;28;20026;-76
2023/07/20 07:05:37;;;;;;;8.98;7.68;;;;;;;17.01;91.28;101470.97;5014063;28;20128;-76
2023/07/20 07:08:04;;;;;;;9.73;8.70;;;;;;;16.93;90.28;101471.66;5028620;28;20036;-76
2023/07/20 07:10:29;;;;;;;13.35;8.85;;;;;;;17.05;90.71;101467.03;5026197;28;20056;-76
2023/07/20 07:12:55;;;;;;;8.00;7.20;;;;;;;17.13;89.94;101462.69;5029458;28;20469;-76
2023/07/20 07:15:20;;;;;;;4.53;3.28;;;;;;;17.15;86.85;101470.53;5027284;28;20068;-76
2023/07/20 07:17:46;;;;;;;3.55;2.85;;;;;;;17.32;86.17;101477.81;5026416;28;20034;-76
2023/07/20 07:20:11;;;;;;;5.63;3.90;;;;;;;17.51;85.95;101468.94;5026779;28;20029;-76
2023/07/20 07:22:36;;;;;;;4.22;3.83;;;;;;;17.70;85.85;101476.09;5028543;28;20126;-75
2023/07/20 07:25:03;;;;;;;5.60;5.10;;;;;;;17.57;85.42;101471.03;5028352;28;20057;-75
2023/07/20 07:27:28;;;;;;;6.00;5.40;;;;;;;18.00;85.78;101467.00;5028023;28;20112;-75
2023/07/20 07:29:54;;;;;;;5.82;4.72;;;;;;;18.39;83.59;101465.00;5011243;28;20422;-75
2023/07/20 07:32:20;;;;;;;5.60;5.10;;;;;;;18.66;80.62;101469.50;5010491;28;20021;-76
2023/07/20 07:34:47;;;;;;;3.42;3.13;;;;;;;18.95;77.05;101467.47;5025848;28;20501;-75
2023/07/20 07:37:13;;;;;;;4.82;2.90;;;;;;;19.18;75.28;101473.16;5027160;28;20024;-76
2023/07/20 07:39:38;;;;;;;3.00;2.70;;;;;;;18.95;74.98;101479.97;5023183;28;20014;-76
2023/07/20 07:42:04;;;;;;;3.92;2.50;;;;;;;19.25;73.59;101476.91;5025343;28;20029;-75
2023/07/20 07:44:29;;;;;;;2.75;2.30;;;;;;;19.40;73.36;101466.50;5028247;28;20112;-76
2023/07/20 07:46:54;;;;;;;2.22;2.00;;;;;;;19.59;72.39;101476.16;5010921;28;20629;-76
2023/07/20 07:49:20;;;;;;;3.78;2.28;;;;;;;19.97;72.67;101478.41;5027537;28;20033;-76
2023/07/20 07:51:46;;;;;;;4.95;2.92;;;;;;;19.96;70.11;101483.91;5025985;28;20017;-76
2023/07/20 07:54:11;;;;;;;4.75;2.22;;;;;;;20.39;68.14;101482.94;5028027;28;20049;-76
2023/07/20 07:56:36;;;;;;;2.83;1.95;;;;;;;20.47;67.69;101485.69;5026725;28;20449;-75
2023/07/20 07:59:02;;;;;;;1.70;1.42;;;;;;;20.75;64.48;101482.72;5026933;28;20115;-75
2023/07/20 08:01:28;;;;;;;1.63;1.33;;;;;;;20.98;63.19;101486.47;5022256;28;20060;-76
2023/07/20 08:03:53;;;;;;;1.92;1.33;;;;;;;21.23;62.55;101488.19;5008533;28;20108;-76
2023/07/20 08:06:19;;;;;;;2.92;1.52;;;;;;;21.09;61.54;101496.00;5004708;28;20469;-76
2023/07/20 08:08:44;;;;;;;2.03;1.40;;;;;;;21.06;61.52;101485.63;5028752;28;20027;-76
2023/07/20 08:11:10;;;;;;;1.70;1.20;;;;;;;21.36;61.07;101492.19;5011484;28;20022;-76
2023/07/20 08:13:36;;;;;;;1.67;0.90;;;;;;;21.76;61.34;101484.09;5029448;28;20432;-79
2023/07/20 08:16:05;;;;;;;1.48;1.00;;;;;;;22.05;58.54;101488.09;5029188;28;20026;-75
2023/07/20 08:18:31;;;;;;;1.85;1.13;;;;;;;22.27;56.12;101484.63;5029661;28;20060;-76
2023/07/20 08:20:56;;;;;;;1.73;1.30;;;;;;;22.24;56.15;101493.03;5030740;28;20021;-75
2023/07/20 08:23:21;;;;;;;2.58;1.02;;;;;;;22.63;58.45;101493.00;5009584;28;20033;-75
2023/07/20 08:25:47;;;;;;;1.25;1.08;;;;;;;23.25;54.93;101492.13;5027228;28;20040;-76
2023/07/20 08:28:14;;;;;;;2.17;1.02;;;;;;;23.38;52.86;101484.28;5014803;28;20033;-76
2023/07/20 08:30:42;;;;;;;1.65;1.05;;;;;;;23.50;52.79;101480.13;5032192;28;20097;-76
2023/07/20 08:33:07;;;;;;;1.80;1.10;;;;;;;23.56;51.77;101474.06;5015139;28;20025;-75
2023/07/20 08:35:33;;;;;;;1.63;0.85;;;;;;;23.56;51.68;101486.66;5031267;28;20047;-76
2023/07/20 08:38:01;;;;;;;2.08;0.80;;;;;;;22.84;51.07;101479.00;5013636;28;20021;-75
2023/07/20 08:40:27;;;;;;;0.85;0.70;;;;;;;21.85;52.25;101479.56;5038820;28;20057;-75
2023/07/20 08:42:55;;;;;;;1.70;0.70;;;;;;;21.49;54.59;101479.13;5031382;28;20052;-75
2023/07/20 08:45:22;;;;;;;1.52;0.80;;;;;;;21.70;55.57;101471.41;5031535;28;20029;-76
2023/07/20 08:47:49;;;;;;;1.42;0.60;;;;;;;22.18;53.54;101472.28;5031706;28;20029;-76
2023/07/20 08:50:16;;;;;;;0.82;0.50;;;;;;;22.64;53.94;101477.75;5031558;28;20025;-77
2023/07/20 08:52:44;;;;;;;1.52;1.10;;;;;;;22.91;53.55;101474.59;5031245;28;20029;-76
2023/07/20 08:55:09;;;;;;;2.67;1.05;;;;;;;23.09;51.86;101477.81;5029084;28;20029;-76
2023/07/20 08:57:36;;;;;;;3.45;1.15;;;;;;;23.19;51.65;101476.72;5030995;28;20537;-76
2023/07/20 09:00:07;;;;;;;1.23;0.80;;;;;;;23.47;51.21;101475.13;5032079;28;20025;-77
2023/07/20 09:02:38;;;;;;;3.10;0.70;;;;;;;24.06;49.96;101476.03;5030949;28;20508;-76
2023/07/20 09:05:04;;;;;;;1.30;0.90;;;;;;;24.01;47.70;101467.69;5029618;28;20032;-76
2023/07/20 09:07:30;;;;;;;3.08;1.00;;;;;;;24.16;47.88;101472.22;5020362;28;20096;-76
2023/07/20 09:09:57;;;;;;;2.67;0.80;;;;;;;24.10;47.15;101471.13;5013999;28;20025;-76
2023/07/20 09:12:23;;;;;;;1.55;0.80;;;;;;;23.73;48.00;101469.38;5001047;28;20096;-76
2023/07/20 09:14:49;;;;;;;2.53;0.90;;;;;;;23.44;50.94;101470.13;5010814;28;20045;-76
2023/07/20 09:17:15;;;;;;;0.90;0.70;;;;;;;23.30;48.28;101474.44;5012767;28;20388;-76
2023/07/20 09:19:48;;;;;;;1.40;0.68;;;;;;;23.87;48.67;101465.00;5009897;28;20517;-76
2023/07/20 09:22:13;;;;;;;2.83;0.70;;;;;;;23.70;48.67;101459.00;5023077;28;20034;-76
2023/07/20 09:24:39;;;;;;;2.40;0.63;;;;;;;23.27;47.56;101461.38;5012411;28;20030;-76
2023/07/20 09:27:04;;;;;;;2.55;0.95;;;;;;;23.01;46.71;101464.44;5030481;28;20041;-76
2023/07/20 09:29:30;;;;;;;1.30;0.60;;;;;;;23.35;46.94;101458.63;5030961;28;20036;-76
2023/07/20 09:32:04;;;;;;;0.90;0.47;;;;;;;24.02;46.66;101458.63;5031349;28;20539;-75
2023/07/20 09:34:31;;;;;;;0.50;0.40;;;;;;;23.60;43.27;101453.03;5012700;28;20116;-76
2023/07/20 09:36:58;;;;;;;1.45;0.80;;;;;;;23.65;45.54;101462.22;5006791;28;20508;-75
2023/07/20 09:39:25;;;;;;;1.00;0.60;;;;;;;23.24;48.57;101447.50;4993867;28;20017;-74
2023/07/20 09:41:51;;;;;;;1.23;0.63;;;;;;;23.08;51.50;101456.50;5010990;28;20029;-75
2023/07/20 09:44:17;;;;;;;1.95;0.80;;;;;;;22.83;52.87;101463.09;5011296;28;20037;-75
2023/07/20 09:46:50;;;;;;;1.88;0.90;;;;;;;22.36;53.59;101462.13;5011472;28;20029;-76
2023/07/20 09:49:17;;;;;;;1.33;0.80;;;;;;;21.77;55.07;101469.72;5011565;28;20022;-76
2023/07/20 09:51:44;;;;;;;2.20;0.85;;;;;;;21.53;56.13;101457.19;5010753;28;20033;-76
2023/07/20 09:54:10;;;;;;;2.47;1.00;;;;;;;21.36;58.12;101460.06;5014950;28;20026;-76
2023/07/20 09:56:37;;;;;;;4.75;1.10;;;;;;;21.23;57.08;101450.72;5024292;28;20040;-76
2023/07/20 09:59:04;;;;;;;3.85;1.33;;;;;;;21.52;55.83;101452.00;5031247;28;20017;-76
2023/07/20 10:01:30;;;;;;;2.05;0.90;;;;;;;21.60;54.98;101446.63;5030417;28;20842;-76
2023/07/20 10:04:01;;;;;;;2.53;1.10;;;;;;;21.84;54.03;101451.94;5013209;28;20102;-76
2023/07/20 10:06:29;;;;;;;3.40;1.00;;;;;;;22.22;54.57;101457.53;5010116;28;20478;-79
2023/07/20 10:09:00;;;;;;;3.38;1.20;;;;;;;21.89;54.19;101457.59;5023499;28;20375;-75
2023/07/20 10:11:29;;;;;;;1.90;1.23;;;;;;;21.96;55.24;101455.06;4993467;28;20485;-76
2023/07/20 10:13:58;;;;;;;1.85;0.85;;;;;;;22.17;52.82;101449.16;4993526;28;20040;-76
2023/07/20 10:16:36;;;;;;;2.85;0.90;;;;;;;22.75;52.17;101448.66;4992992;28;20561;-76
2023/07/20 10:19:17;;;;;;;0.88;0.80;;;;;;;23.14;51.88;101443.19;5010997;28;20030;-76
2023/07/20 10:21:48;;;;;;;3.33;0.93;;;;;;;23.19;51.40;101442.63;4990981;28;20061;-76
2023/07/20 10:24:14;;;;;;;4.97;0.90;;;;;;;23.11;49.61;101440.03;5005248;28;20115;-76
2023/07/20 10:26:40;;;;;;;1.88;0.70;;;;;;;23.25;49.31;101439.25;5014463;28;20087;-75
2023/07/20 10:29:06;;;;;;;1.23;0.70;;;;;;;23.82;46.10;101435.16;5023955;28;20033;-76
2023/07/20 10:31:32;;;;;;;0.90;0.63;;;;;;;24.20;46.69;101433.19;5030311;28;20038;-76
2023/07/20 10:33:58;;;;;;;2.17;1.00;;;;;;;24.25;45.87;101431.59;5030339;28;20052;-76
2023/07/20 10:36:28;;;;;;;1.92;0.70;;;;;;;23.60;46.33;101431.53;5011971;28;20110;-78
2023/07/20 10:38:56;;;;;;;1.65;0.80;;;;;;;23.25;46.84;101427.69;5028897;28;20078;-77
2023/07/20 10:41:42;;;;;;;1.08;0.80;;;;;;;23.30;49.38;101430.66;5018444;28;20478;-77
2023/07/20 10:44:11;;;;;;;1.63;0.80;;;;;;;23.25;47.91;101428.50;4986758;28;20083;-76
2023/07/20 10:46:39;;;;;;;1.92;0.68;;;;;;;23.56;49.11;101419.50;5010547;28;20029;-76
2023/07/20 10:49:16;;;;;;;1.02;0.73;;;;;;;23.88;47.50;101412.91;5010149;28;20018;-76
2023/07/20 10:51:47;;;;;;;0.73;0.50;;;;;;;23.80;46.15;101418.41;5009778;28;20022;-76
2023/07/20 10:54:16;;;;;;;1.02;0.75;;;;;;;23.53;46.61;101414.44;5000397;28;20119;-76
2023/07/20 10:56:47;;;;;;;2.05;0.93;;;;;;;23.51;48.57;101413.81;5025423;28;20029;-76
2023/07/20 10:59:36;;;;;;;2.15;0.90;;;;;;;23.39;48.33;101418.81;5013253;28;20037;-76
2023/07/20 11:02:06;;;;;;;2.72;0.63;;;;;;;23.34;48.77;101415.84;4975915;28;20113;-76
2023/07/20 11:04:39;;;;;;;1.52;0.60;;;;;;;22.96;48.84;101413.16;4980907;28;20018;-75
2023/07/20 11:07:06;;;;;;;0.82;0.57;;;;;;;22.84;48.56;101417.28;5010376;28;20060;-76
2023/07/20 11:09:35;;;;;;;2.70;0.60;;;;;;;22.72;49.35;101416.81;5010283;28;20026;-76
2023/07/20 11:12:14;;;;;;;0.95;0.70;;;;;;;22.72;50.58;101422.19;5009821;28;20030;-76